sensor_id;sensor_type;location;lat;lon;timestamp;P1;durP1;ratioP1;P2;durP2;ratioP2
16119;SDS011;12670;53.502;10.252;2024-01-30T00:01:44;9.83;;;5.73;;
16119;SDS011;12670;53.502;10.252;2024-01-30T00:04:48;13.20;;;5.63;;
16119;SDS011;12670;53.502;10.252;2024-01-30T00:07:50;8.83;;;5.13;;
16119;SDS011;12670;53.502;10.252;2024-01-30T00:10:54;11.53;;;4.90;;
16119;SDS011;12670;53.502;10.252;2024-01-30T00:13:56;9.23;;;5.27;;
16119;SDS011;12670;53.502;10.252;2024-01-30T00:16:59;8.47;;;5.30;;
16119;SDS011;12670;53.502;10.252;2024-01-30T00:20:04;31.50;;;6.43;;
16119;SDS011;12670;53.502;10.252;2024-01-30T00:23:08;13.93;;;5.70;;
16119;SDS011;12670;53.502;10.252;2024-01-30T00:26:11;140.07;;;11.40;;
16119;SDS011;12670;53.502;10.252;2024-01-30T00:29:16;249.90;;;13.60;;
16119;SDS011;12670;53.502;10.252;2024-01-30T00:32:21;429.20;;;21.00;;
16119;SDS011;12670;53.502;10.252;2024-01-30T00:35:25;865.00;;;34.30;;
16119;SDS011;12670;53.502;10.252;2024-01-30T00:38:28;1140.50;;;53.77;;
16119;SDS011;12670;53.502;10.252;2024-01-30T00:41:31;9.10;;;4.90;;
16119;SDS011;12670;53.502;10.252;2024-01-30T00:44:34;9.03;;;5.00;;
16119;SDS011;12670;53.502;10.252;2024-01-30T00:47:38;11.80;;;5.03;;
16119;SDS011;12670;53.502;10.252;2024-01-30T00:50:42;9.43;;;5.17;;
16119;SDS011;12670;53.502;10.252;2024-01-30T00:53:45;11.63;;;5.07;;
16119;SDS011;12670;53.502;10.252;2024-01-30T00:56:48;9.07;;;5.10;;
16119;SDS011;12670;53.502;10.252;2024-01-30T00:59:50;10.00;;;5.20;;
16119;SDS011;12670;53.502;10.252;2024-01-30T01:02:53;12.83;;;5.10;;
16119;SDS011;12670;53.502;10.252;2024-01-30T01:05:57;8.20;;;4.93;;
16119;SDS011;12670;53.502;10.252;2024-01-30T01:09:00;7.43;;;5.00;;
16119;SDS011;12670;53.502;10.252;2024-01-30T01:12:06;9.83;;;5.13;;
16119;SDS011;12670;53.502;10.252;2024-01-30T01:15:09;13.80;;;5.13;;
16119;SDS011;12670;53.502;10.252;2024-01-30T01:18:12;11.17;;;5.20;;
16119;SDS011;12670;53.502;10.252;2024-01-30T01:21:16;12.80;;;5.50;;
16119;SDS011;12670;53.502;10.252;2024-01-30T01:24:19;7.87;;;4.87;;
16119;SDS011;12670;53.502;10.252;2024-01-30T01:27:22;9.70;;;5.23;;
16119;SDS011;12670;53.502;10.252;2024-01-30T01:30:24;10.30;;;5.20;;
16119;SDS011;12670;53.502;10.252;2024-01-30T01:33:27;8.23;;;5.37;;
16119;SDS011;12670;53.502;10.252;2024-01-30T01:36:32;13.97;;;5.23;;
16119;SDS011;12670;53.502;10.252;2024-01-30T01:39:34;9.50;;;5.30;;
16119;SDS011;12670;53.502;10.252;2024-01-30T01:42:37;9.20;;;5.23;;
16119;SDS011;12670;53.502;10.252;2024-01-30T01:45:40;11.50;;;5.03;;
16119;SDS011;12670;53.502;10.252;2024-01-30T01:48:43;11.53;;;5.60;;
16119;SDS011;12670;53.502;10.252;2024-01-30T01:51:47;11.03;;;5.43;;
16119;SDS011;12670;53.502;10.252;2024-01-30T01:54:51;10.50;;;5.30;;
16119;SDS011;12670;53.502;10.252;2024-01-30T01:57:54;10.87;;;6.03;;
16119;SDS011;12670;53.502;10.252;2024-01-30T02:00:57;10.13;;;5.47;;
16119;SDS011;12670;53.502;10.252;2024-01-30T02:04:01;12.10;;;5.47;;
16119;SDS011;12670;53.502;10.252;2024-01-30T02:07:05;10.00;;;5.20;;
16119;SDS011;12670;53.502;10.252;2024-01-30T02:10:08;10.40;;;5.30;;
16119;SDS011;12670;53.502;10.252;2024-01-30T02:13:12;14.03;;;5.80;;
16119;SDS011;12670;53.502;10.252;2024-01-30T02:16:14;9.93;;;5.73;;
16119;SDS011;12670;53.502;10.252;2024-01-30T02:19:18;11.93;;;5.90;;
16119;SDS011;12670;53.502;10.252;2024-01-30T02:22:23;10.50;;;5.57;;
16119;SDS011;12670;53.502;10.252;2024-01-30T02:25:33;9.73;;;5.67;;
16119;SDS011;12670;53.502;10.252;2024-01-30T02:28:36;9.80;;;5.77;;
16119;SDS011;12670;53.502;10.252;2024-01-30T02:31:39;9.63;;;5.37;;
16119;SDS011;12670;53.502;10.252;2024-01-30T02:34:42;10.97;;;5.67;;
16119;SDS011;12670;53.502;10.252;2024-01-30T02:37:46;9.67;;;5.77;;
16119;SDS011;12670;53.502;10.252;2024-01-30T02:40:49;12.87;;;6.13;;
16119;SDS011;12670;53.502;10.252;2024-01-30T02:43:51;11.37;;;6.33;;
16119;SDS011;12670;53.502;10.252;2024-01-30T02:46:54;10.43;;;6.00;;
16119;SDS011;12670;53.502;10.252;2024-01-30T02:49:57;11.23;;;5.80;;
16119;SDS011;12670;53.502;10.252;2024-01-30T02:53:01;12.13;;;6.10;;
16119;SDS011;12670;53.502;10.252;2024-01-30T02:56:04;10.77;;;6.10;;
16119;SDS011;12670;53.502;10.252;2024-01-30T02:59:10;16.07;;;5.80;;
16119;SDS011;12670;53.502;10.252;2024-01-30T03:02:13;12.23;;;6.53;;
16119;SDS011;12670;53.502;10.252;2024-01-30T03:05:16;13.17;;;6.37;;
16119;SDS011;12670;53.502;10.252;2024-01-30T03:08:20;12.37;;;6.77;;
16119;SDS011;12670;53.502;10.252;2024-01-30T03:11:23;10.30;;;5.93;;
16119;SDS011;12670;53.502;10.252;2024-01-30T03:14:26;11.47;;;5.80;;
16119;SDS011;12670;53.502;10.252;2024-01-30T03:17:28;12.40;;;6.57;;
16119;SDS011;12670;53.502;10.252;2024-01-30T03:20:31;10.33;;;6.13;;
16119;SDS011;12670;53.502;10.252;2024-01-30T03:23:35;11.20;;;6.40;;
16119;SDS011;12670;53.502;10.252;2024-01-30T03:26:38;11.93;;;6.43;;
16119;SDS011;12670;53.502;10.252;2024-01-30T03:29:41;14.70;;;6.87;;
16119;SDS011;12670;53.502;10.252;2024-01-30T03:32:43;10.70;;;6.43;;
16119;SDS011;12670;53.502;10.252;2024-01-30T03:35:46;11.07;;;6.30;;
16119;SDS011;12670;53.502;10.252;2024-01-30T03:38:50;13.13;;;6.90;;
16119;SDS011;12670;53.502;10.252;2024-01-30T03:41:53;11.47;;;6.70;;
16119;SDS011;12670;53.502;10.252;2024-01-30T03:44:56;17.50;;;7.63;;
16119;SDS011;12670;53.502;10.252;2024-01-30T03:48:00;14.10;;;6.83;;
16119;SDS011;12670;53.502;10.252;2024-01-30T03:51:03;12.80;;;6.33;;
16119;SDS011;12670;53.502;10.252;2024-01-30T03:54:08;15.60;;;6.80;;
16119;SDS011;12670;53.502;10.252;2024-01-30T03:57:11;12.53;;;6.80;;
16119;SDS011;12670;53.502;10.252;2024-01-30T04:00:14;10.57;;;6.40;;
16119;SDS011;12670;53.502;10.252;2024-01-30T04:03:17;14.17;;;7.50;;
16119;SDS011;12670;53.502;10.252;2024-01-30T04:06:19;16.03;;;7.30;;
16119;SDS011;12670;53.502;10.252;2024-01-30T04:09:23;11.30;;;6.47;;
16119;SDS011;12670;53.502;10.252;2024-01-30T04:12:27;14.20;;;6.83;;
16119;SDS011;12670;53.502;10.252;2024-01-30T04:15:30;12.13;;;6.97;;
16119;SDS011;12670;53.502;10.252;2024-01-30T04:18:33;14.83;;;7.00;;
16119;SDS011;12670;53.502;10.252;2024-01-30T04:21:36;20.20;;;6.63;;
16119;SDS011;12670;53.502;10.252;2024-01-30T04:24:40;12.00;;;7.20;;
16119;SDS011;12670;53.502;10.252;2024-01-30T04:27:43;12.00;;;6.73;;
16119;SDS011;12670;53.502;10.252;2024-01-30T04:30:46;12.10;;;6.93;;
16119;SDS011;12670;53.502;10.252;2024-01-30T04:33:49;12.67;;;7.30;;
16119;SDS011;12670;53.502;10.252;2024-01-30T04:36:52;13.53;;;6.97;;
16119;SDS011;12670;53.502;10.252;2024-01-30T04:39:56;13.00;;;7.07;;
16119;SDS011;12670;53.502;10.252;2024-01-30T04:42:59;14.73;;;7.00;;
16119;SDS011;12670;53.502;10.252;2024-01-30T04:46:01;13.57;;;7.57;;
16119;SDS011;12670;53.502;10.252;2024-01-30T04:49:04;14.70;;;7.43;;
16119;SDS011;12670;53.502;10.252;2024-01-30T04:52:09;17.70;;;7.43;;
16119;SDS011;12670;53.502;10.252;2024-01-30T04:55:13;17.40;;;7.17;;
16119;SDS011;12670;53.502;10.252;2024-01-30T04:58:15;13.33;;;7.00;;
16119;SDS011;12670;53.502;10.252;2024-01-30T05:01:18;12.90;;;7.53;;
16119;SDS011;12670;53.502;10.252;2024-01-30T05:04:21;12.20;;;7.17;;
16119;SDS011;12670;53.502;10.252;2024-01-30T05:07:24;13.53;;;6.97;;
16119;SDS011;12670;53.502;10.252;2024-01-30T05:10:29;12.03;;;7.00;;
16119;SDS011;12670;53.502;10.252;2024-01-30T05:13:32;14.23;;;7.00;;
16119;SDS011;12670;53.502;10.252;2024-01-30T05:16:34;14.67;;;7.87;;
16119;SDS011;12670;53.502;10.252;2024-01-30T05:19:37;13.73;;;7.77;;
16119;SDS011;12670;53.502;10.252;2024-01-30T05:22:40;14.23;;;7.77;;
16119;SDS011;12670;53.502;10.252;2024-01-30T05:25:47;13.97;;;7.53;;
16119;SDS011;12670;53.502;10.252;2024-01-30T05:28:50;16.33;;;7.90;;
16119;SDS011;12670;53.502;10.252;2024-01-30T05:31:53;13.67;;;7.83;;
16119;SDS011;12670;53.502;10.252;2024-01-30T05:34:56;13.17;;;7.27;;
16119;SDS011;12670;53.502;10.252;2024-01-30T05:37:58;17.03;;;7.27;;
16119;SDS011;12670;53.502;10.252;2024-01-30T05:41:02;13.20;;;7.43;;
16119;SDS011;12670;53.502;10.252;2024-01-30T05:44:05;17.17;;;8.33;;
16119;SDS011;12670;53.502;10.252;2024-01-30T05:47:08;15.03;;;8.10;;
16119;SDS011;12670;53.502;10.252;2024-01-30T05:50:11;13.90;;;8.10;;
16119;SDS011;12670;53.502;10.252;2024-01-30T05:53:13;20.93;;;8.30;;
16119;SDS011;12670;53.502;10.252;2024-01-30T05:56:18;14.80;;;8.20;;
16119;SDS011;12670;53.502;10.252;2024-01-30T05:59:20;15.87;;;7.83;;
16119;SDS011;12670;53.502;10.252;2024-01-30T06:02:23;15.33;;;7.60;;
16119;SDS011;12670;53.502;10.252;2024-01-30T06:05:26;14.50;;;8.50;;
16119;SDS011;12670;53.502;10.252;2024-01-30T06:08:28;15.53;;;8.43;;
16119;SDS011;12670;53.502;10.252;2024-01-30T06:11:32;16.13;;;8.37;;
16119;SDS011;12670;53.502;10.252;2024-01-30T06:14:35;14.23;;;8.30;;
16119;SDS011;12670;53.502;10.252;2024-01-30T06:17:38;14.53;;;8.40;;
16119;SDS011;12670;53.502;10.252;2024-01-30T06:20:41;15.10;;;7.97;;
16119;SDS011;12670;53.502;10.252;2024-01-30T06:23:44;18.17;;;8.67;;
16119;SDS011;12670;53.502;10.252;2024-01-30T06:26:48;23.00;;;9.27;;
16119;SDS011;12670;53.502;10.252;2024-01-30T06:29:50;33.50;;;9.23;;
16119;SDS011;12670;53.502;10.252;2024-01-30T06:32:53;17.63;;;9.27;;
16119;SDS011;12670;53.502;10.252;2024-01-30T06:35:56;15.97;;;8.30;;
16119;SDS011;12670;53.502;10.252;2024-01-30T06:38:59;16.40;;;9.37;;
16119;SDS011;12670;53.502;10.252;2024-01-30T06:42:03;15.83;;;8.87;;
16119;SDS011;12670;53.502;10.252;2024-01-30T06:45:07;13.77;;;8.60;;
16119;SDS011;12670;53.502;10.252;2024-01-30T06:48:11;14.30;;;8.23;;
16119;SDS011;12670;53.502;10.252;2024-01-30T06:51:13;18.30;;;9.47;;
16119;SDS011;12670;53.502;10.252;2024-01-30T06:54:18;19.23;;;9.47;;
16119;SDS011;12670;53.502;10.252;2024-01-30T06:57:22;16.03;;;8.63;;
16119;SDS011;12670;53.502;10.252;2024-01-30T07:00:25;17.97;;;9.40;;
16119;SDS011;12670;53.502;10.252;2024-01-30T07:03:28;18.60;;;8.73;;
16119;SDS011;12670;53.502;10.252;2024-01-30T07:06:30;21.67;;;8.77;;
16119;SDS011;12670;53.502;10.252;2024-01-30T07:09:33;15.27;;;8.20;;
16119;SDS011;12670;53.502;10.252;2024-01-30T07:12:38;22.00;;;9.30;;
16119;SDS011;12670;53.502;10.252;2024-01-30T07:15:42;16.57;;;9.90;;
16119;SDS011;12670;53.502;10.252;2024-01-30T07:18:45;17.40;;;9.23;;
16119;SDS011;12670;53.502;10.252;2024-01-30T07:21:48;16.60;;;9.17;;
16119;SDS011;12670;53.502;10.252;2024-01-30T07:24:50;19.13;;;9.70;;
16119;SDS011;12670;53.502;10.252;2024-01-30T07:27:55;16.77;;;9.80;;
16119;SDS011;12670;53.502;10.252;2024-01-30T07:30:58;18.27;;;8.67;;
16119;SDS011;12670;53.502;10.252;2024-01-30T07:34:01;17.23;;;9.40;;
16119;SDS011;12670;53.502;10.252;2024-01-30T07:37:04;15.70;;;9.33;;
16119;SDS011;12670;53.502;10.252;2024-01-30T07:40:08;22.57;;;9.50;;
16119;SDS011;12670;53.502;10.252;2024-01-30T07:43:13;17.60;;;9.60;;
16119;SDS011;12670;53.502;10.252;2024-01-30T07:46:15;18.37;;;9.27;;
16119;SDS011;12670;53.502;10.252;2024-01-30T07:49:18;19.23;;;9.97;;
16119;SDS011;12670;53.502;10.252;2024-01-30T07:52:21;18.47;;;9.57;;
16119;SDS011;12670;53.502;10.252;2024-01-30T07:55:24;16.73;;;9.70;;
16119;SDS011;12670;53.502;10.252;2024-01-30T08:02:29;16.80;;;9.80;;
16119;SDS011;12670;53.502;10.252;2024-01-30T08:05:32;19.37;;;9.97;;
16119;SDS011;12670;53.502;10.252;2024-01-30T08:08:35;22.17;;;10.60;;
16119;SDS011;12670;53.502;10.252;2024-01-30T08:11:38;19.57;;;10.10;;
16119;SDS011;12670;53.502;10.252;2024-01-30T08:14:41;19.13;;;10.20;;
16119;SDS011;12670;53.502;10.252;2024-01-30T08:17:45;19.87;;;10.40;;
16119;SDS011;12670;53.502;10.252;2024-01-30T08:20:48;20.80;;;10.40;;
16119;SDS011;12670;53.502;10.252;2024-01-30T08:23:51;17.97;;;9.57;;
16119;SDS011;12670;53.502;10.252;2024-01-30T08:26:53;20.07;;;10.27;;
16119;SDS011;12670;53.502;10.252;2024-01-30T08:29:56;19.80;;;9.37;;
16119;SDS011;12670;53.502;10.252;2024-01-30T08:33:00;19.57;;;9.93;;
16119;SDS011;12670;53.502;10.252;2024-01-30T08:36:03;15.73;;;9.83;;
16119;SDS011;12670;53.502;10.252;2024-01-30T08:39:05;18.17;;;10.07;;
16119;SDS011;12670;53.502;10.252;2024-01-30T08:42:08;18.20;;;9.63;;
16119;SDS011;12670;53.502;10.252;2024-01-30T08:45:11;18.30;;;9.70;;
16119;SDS011;12670;53.502;10.252;2024-01-30T08:48:15;26.27;;;9.97;;
16119;SDS011;12670;53.502;10.252;2024-01-30T08:51:19;19.67;;;9.97;;
16119;SDS011;12670;53.502;10.252;2024-01-30T08:54:21;17.23;;;10.10;;
16119;SDS011;12670;53.502;10.252;2024-01-30T08:57:25;15.77;;;9.60;;
16119;SDS011;12670;53.502;10.252;2024-01-30T09:00:29;16.13;;;9.27;;
16119;SDS011;12670;53.502;10.252;2024-01-30T09:03:33;18.03;;;9.80;;
16119;SDS011;12670;53.502;10.252;2024-01-30T09:06:37;15.87;;;9.57;;
16119;SDS011;12670;53.502;10.252;2024-01-30T09:09:41;18.47;;;9.70;;
16119;SDS011;12670;53.502;10.252;2024-01-30T09:12:44;54.87;;;23.27;;
16119;SDS011;12670;53.502;10.252;2024-01-30T09:15:46;19.10;;;10.20;;
16119;SDS011;12670;53.502;10.252;2024-01-30T09:18:50;18.10;;;9.93;;
16119;SDS011;12670;53.502;10.252;2024-01-30T09:21:53;18.33;;;9.57;;
16119;SDS011;12670;53.502;10.252;2024-01-30T09:24:56;20.13;;;9.70;;
16119;SDS011;12670;53.502;10.252;2024-01-30T09:27:59;25.13;;;10.70;;
16119;SDS011;12670;53.502;10.252;2024-01-30T09:31:03;19.70;;;9.40;;
16119;SDS011;12670;53.502;10.252;2024-01-30T09:34:07;20.10;;;10.40;;
16119;SDS011;12670;53.502;10.252;2024-01-30T09:37:10;19.23;;;10.27;;
16119;SDS011;12670;53.502;10.252;2024-01-30T09:40:13;20.93;;;10.77;;
16119;SDS011;12670;53.502;10.252;2024-01-30T09:43:21;17.93;;;9.60;;
16119;SDS011;12670;53.502;10.252;2024-01-30T09:46:27;18.93;;;9.33;;
16119;SDS011;12670;53.502;10.252;2024-01-30T09:49:33;20.03;;;9.80;;
16119;SDS011;12670;53.502;10.252;2024-01-30T09:52:37;17.23;;;9.73;;
16119;SDS011;12670;53.502;10.252;2024-01-30T09:55:40;23.33;;;12.27;;
16119;SDS011;12670;53.502;10.252;2024-01-30T09:58:45;22.67;;;11.03;;
16119;SDS011;12670;53.502;10.252;2024-01-30T10:01:49;20.23;;;10.10;;
16119;SDS011;12670;53.502;10.252;2024-01-30T10:04:54;18.80;;;10.23;;
16119;SDS011;12670;53.502;10.252;2024-01-30T10:07:57;19.53;;;9.97;;
16119;SDS011;12670;53.502;10.252;2024-01-30T10:11:00;18.37;;;9.57;;
16119;SDS011;12670;53.502;10.252;2024-01-30T10:14:04;16.43;;;9.47;;
16119;SDS011;12670;53.502;10.252;2024-01-30T10:17:07;16.47;;;9.73;;
16119;SDS011;12670;53.502;10.252;2024-01-30T10:20:23;16.77;;;9.60;;
16119;SDS011;12670;53.502;10.252;2024-01-30T10:23:27;14.73;;;8.90;;
16119;SDS011;12670;53.502;10.252;2024-01-30T10:26:37;14.63;;;9.17;;
16119;SDS011;12670;53.502;10.252;2024-01-30T10:29:40;17.70;;;9.23;;
16119;SDS011;12670;53.502;10.252;2024-01-30T10:32:43;19.00;;;9.50;;
16119;SDS011;12670;53.502;10.252;2024-01-30T10:35:47;19.13;;;9.03;;
16119;SDS011;12670;53.502;10.252;2024-01-30T10:38:51;17.83;;;9.67;;
16119;SDS011;12670;53.502;10.252;2024-01-30T10:41:55;19.13;;;9.13;;
16119;SDS011;12670;53.502;10.252;2024-01-30T10:45:05;23.57;;;12.13;;
16119;SDS011;12670;53.502;10.252;2024-01-30T10:48:09;17.37;;;8.77;;
16119;SDS011;12670;53.502;10.252;2024-01-30T10:51:15;14.07;;;8.47;;
16119;SDS011;12670;53.502;10.252;2024-01-30T10:54:18;19.30;;;10.00;;
16119;SDS011;12670;53.502;10.252;2024-01-30T10:57:22;16.23;;;9.30;;
16119;SDS011;12670;53.502;10.252;2024-01-30T11:00:25;19.10;;;9.17;;
16119;SDS011;12670;53.502;10.252;2024-01-30T11:03:29;16.53;;;8.67;;
16119;SDS011;12670;53.502;10.252;2024-01-30T11:06:40;14.33;;;8.40;;
16119;SDS011;12670;53.502;10.252;2024-01-30T11:09:50;16.10;;;8.40;;
16119;SDS011;12670;53.502;10.252;2024-01-30T11:12:53;16.33;;;8.20;;
16119;SDS011;12670;53.502;10.252;2024-01-30T11:15:59;15.77;;;8.90;;
16119;SDS011;12670;53.502;10.252;2024-01-30T11:19:03;18.03;;;8.50;;
16119;SDS011;12670;53.502;10.252;2024-01-30T11:22:07;15.23;;;8.70;;
16119;SDS011;12670;53.502;10.252;2024-01-30T11:25:13;14.47;;;8.77;;
16119;SDS011;12670;53.502;10.252;2024-01-30T11:28:17;19.17;;;8.80;;
16119;SDS011;12670;53.502;10.252;2024-01-30T11:31:20;17.10;;;8.17;;
16119;SDS011;12670;53.502;10.252;2024-01-30T11:34:22;14.77;;;8.50;;
16119;SDS011;12670;53.502;10.252;2024-01-30T11:37:27;13.17;;;8.07;;
16119;SDS011;12670;53.502;10.252;2024-01-30T11:40:34;16.97;;;8.33;;
16119;SDS011;12670;53.502;10.252;2024-01-30T11:43:38;17.00;;;8.67;;
16119;SDS011;12670;53.502;10.252;2024-01-30T11:46:40;16.90;;;8.20;;
16119;SDS011;12670;53.502;10.252;2024-01-30T11:49:43;17.87;;;8.87;;
16119;SDS011;12670;53.502;10.252;2024-01-30T11:52:48;13.30;;;8.17;;
16119;SDS011;12670;53.502;10.252;2024-01-30T11:55:51;15.00;;;7.63;;
16119;SDS011;12670;53.502;10.252;2024-01-30T11:58:54;16.40;;;8.63;;
16119;SDS011;12670;53.502;10.252;2024-01-30T12:01:56;15.87;;;8.20;;
16119;SDS011;12670;53.502;10.252;2024-01-30T12:05:02;15.20;;;8.47;;
16119;SDS011;12670;53.502;10.252;2024-01-30T12:08:07;14.40;;;7.80;;
16119;SDS011;12670;53.502;10.252;2024-01-30T12:11:16;17.70;;;7.87;;
16119;SDS011;12670;53.502;10.252;2024-01-30T12:14:19;15.97;;;7.73;;
16119;SDS011;12670;53.502;10.252;2024-01-30T12:17:24;14.40;;;8.43;;
16119;SDS011;12670;53.502;10.252;2024-01-30T12:20:29;16.23;;;8.27;;
16119;SDS011;12670;53.502;10.252;2024-01-30T12:23:33;15.63;;;8.47;;
16119;SDS011;12670;53.502;10.252;2024-01-30T12:26:37;12.50;;;8.03;;
16119;SDS011;12670;53.502;10.252;2024-01-30T12:29:41;16.00;;;7.63;;
16119;SDS011;12670;53.502;10.252;2024-01-30T12:32:44;12.60;;;7.23;;
16119;SDS011;12670;53.502;10.252;2024-01-30T12:35:48;15.83;;;7.73;;
16119;SDS011;12670;53.502;10.252;2024-01-30T12:39:04;14.00;;;7.23;;
16119;SDS011;12670;53.502;10.252;2024-01-30T12:42:07;15.00;;;7.73;;
16119;SDS011;12670;53.502;10.252;2024-01-30T12:45:10;10.93;;;7.20;;
16119;SDS011;12670;53.502;10.252;2024-01-30T12:48:12;15.17;;;7.43;;
16119;SDS011;12670;53.502;10.252;2024-01-30T12:51:17;14.80;;;7.27;;
16119;SDS011;12670;53.502;10.252;2024-01-30T12:54:21;12.37;;;7.13;;
16119;SDS011;12670;53.502;10.252;2024-01-30T12:57:25;14.07;;;7.30;;
16119;SDS011;12670;53.502;10.252;2024-01-30T13:00:27;14.87;;;7.40;;
16119;SDS011;12670;53.502;10.252;2024-01-30T13:03:30;16.00;;;7.40;;
16119;SDS011;12670;53.502;10.252;2024-01-30T13:06:33;13.53;;;7.20;;
16119;SDS011;12670;53.502;10.252;2024-01-30T13:09:37;16.23;;;7.47;;
16119;SDS011;12670;53.502;10.252;2024-01-30T13:12:40;13.13;;;7.57;;
16119;SDS011;12670;53.502;10.252;2024-01-30T13:15:43;17.33;;;7.27;;
16119;SDS011;12670;53.502;10.252;2024-01-30T13:18:46;12.13;;;7.03;;
16119;SDS011;12670;53.502;10.252;2024-01-30T13:21:48;15.20;;;7.87;;
16119;SDS011;12670;53.502;10.252;2024-01-30T13:24:52;13.00;;;6.97;;
16119;SDS011;12670;53.502;10.252;2024-01-30T13:27:55;15.03;;;6.60;;
16119;SDS011;12670;53.502;10.252;2024-01-30T13:30:58;14.07;;;6.90;;
16119;SDS011;12670;53.502;10.252;2024-01-30T13:34:01;12.63;;;6.93;;
16119;SDS011;12670;53.502;10.252;2024-01-30T13:37:08;18.17;;;6.90;;
16119;SDS011;12670;53.502;10.252;2024-01-30T13:40:12;15.40;;;7.53;;
16119;SDS011;12670;53.502;10.252;2024-01-30T13:43:16;12.77;;;6.77;;
16119;SDS011;12670;53.502;10.252;2024-01-30T13:46:19;13.17;;;7.07;;
16119;SDS011;12670;53.502;10.252;2024-01-30T13:49:22;14.20;;;7.13;;
16119;SDS011;12670;53.502;10.252;2024-01-30T13:52:25;11.93;;;6.73;;
16119;SDS011;12670;53.502;10.252;2024-01-30T13:55:36;12.53;;;6.63;;
16119;SDS011;12670;53.502;10.252;2024-01-30T13:58:40;14.43;;;6.93;;
16119;SDS011;12670;53.502;10.252;2024-01-30T14:01:43;12.17;;;6.30;;
16119;SDS011;12670;53.502;10.252;2024-01-30T14:04:46;14.50;;;6.70;;
16119;SDS011;12670;53.502;10.252;2024-01-30T14:07:49;14.50;;;7.83;;
16119;SDS011;12670;53.502;10.252;2024-01-30T14:10:53;14.40;;;7.23;;
16119;SDS011;12670;53.502;10.252;2024-01-30T14:13:57;14.23;;;6.77;;
16119;SDS011;12670;53.502;10.252;2024-01-30T14:17:00;16.80;;;6.93;;
16119;SDS011;12670;53.502;10.252;2024-01-30T14:20:03;11.97;;;7.00;;
16119;SDS011;12670;53.502;10.252;2024-01-30T14:23:06;16.07;;;7.30;;
16119;SDS011;12670;53.502;10.252;2024-01-30T14:26:10;14.37;;;7.57;;
16119;SDS011;12670;53.502;10.252;2024-01-30T14:29:13;15.60;;;8.10;;
16119;SDS011;12670;53.502;10.252;2024-01-30T14:32:15;16.57;;;8.20;;
16119;SDS011;12670;53.502;10.252;2024-01-30T14:35:18;15.47;;;7.50;;
16119;SDS011;12670;53.502;10.252;2024-01-30T14:38:21;17.30;;;7.97;;
16119;SDS011;12670;53.502;10.252;2024-01-30T14:41:27;16.20;;;7.53;;
16119;SDS011;12670;53.502;10.252;2024-01-30T14:44:30;17.57;;;6.97;;
16119;SDS011;12670;53.502;10.252;2024-01-30T14:47:33;15.20;;;8.00;;
16119;SDS011;12670;53.502;10.252;2024-01-30T14:50:37;14.37;;;7.23;;
16119;SDS011;12670;53.502;10.252;2024-01-30T14:53:39;16.80;;;7.77;;
16119;SDS011;12670;53.502;10.252;2024-01-30T14:56:43;16.03;;;7.43;;
16119;SDS011;12670;53.502;10.252;2024-01-30T14:59:46;16.13;;;8.03;;
16119;SDS011;12670;53.502;10.252;2024-01-30T15:02:49;12.20;;;7.17;;
16119;SDS011;12670;53.502;10.252;2024-01-30T15:05:52;15.47;;;7.00;;
16119;SDS011;12670;53.502;10.252;2024-01-30T15:08:56;14.00;;;7.27;;
16119;SDS011;12670;53.502;10.252;2024-01-30T15:12:00;15.47;;;7.93;;
16119;SDS011;12670;53.502;10.252;2024-01-30T15:15:03;14.37;;;7.03;;
16119;SDS011;12670;53.502;10.252;2024-01-30T15:18:07;13.80;;;7.77;;
16119;SDS011;12670;53.502;10.252;2024-01-30T15:21:12;15.43;;;8.03;;
16119;SDS011;12670;53.502;10.252;2024-01-30T15:24:15;15.20;;;7.80;;
16119;SDS011;12670;53.502;10.252;2024-01-30T15:27:20;19.67;;;8.07;;
16119;SDS011;12670;53.502;10.252;2024-01-30T15:30:23;18.37;;;7.83;;
16119;SDS011;12670;53.502;10.252;2024-01-30T15:33:26;23.87;;;7.80;;
16119;SDS011;12670;53.502;10.252;2024-01-30T15:36:30;22.10;;;11.37;;
16119;SDS011;12670;53.502;10.252;2024-01-30T15:39:32;17.17;;;7.47;;
16119;SDS011;12670;53.502;10.252;2024-01-30T15:42:37;14.93;;;7.07;;
16119;SDS011;12670;53.502;10.252;2024-01-30T15:45:39;16.63;;;7.17;;
16119;SDS011;12670;53.502;10.252;2024-01-30T15:48:42;14.53;;;7.30;;
16119;SDS011;12670;53.502;10.252;2024-01-30T15:51:45;15.60;;;7.13;;
16119;SDS011;12670;53.502;10.252;2024-01-30T15:54:48;18.97;;;7.90;;
16119;SDS011;12670;53.502;10.252;2024-01-30T15:57:52;14.67;;;7.23;;
16119;SDS011;12670;53.502;10.252;2024-01-30T16:00:55;19.80;;;7.53;;
16119;SDS011;12670;53.502;10.252;2024-01-30T16:03:58;17.40;;;7.80;;
16119;SDS011;12670;53.502;10.252;2024-01-30T16:07:01;14.53;;;8.20;;
16119;SDS011;12670;53.502;10.252;2024-01-30T16:10:05;16.30;;;8.30;;
16119;SDS011;12670;53.502;10.252;2024-01-30T16:13:11;16.30;;;7.70;;
16119;SDS011;12670;53.502;10.252;2024-01-30T16:16:13;16.53;;;7.97;;
16119;SDS011;12670;53.502;10.252;2024-01-30T16:19:16;15.33;;;6.90;;
16119;SDS011;12670;53.502;10.252;2024-01-30T16:22:20;15.73;;;7.60;;
16119;SDS011;12670;53.502;10.252;2024-01-30T16:25:22;15.00;;;8.07;;
16119;SDS011;12670;53.502;10.252;2024-01-30T16:28:27;17.10;;;7.17;;
16119;SDS011;12670;53.502;10.252;2024-01-30T16:31:30;12.60;;;7.57;;
16119;SDS011;12670;53.502;10.252;2024-01-30T16:34:32;16.20;;;8.00;;
16119;SDS011;12670;53.502;10.252;2024-01-30T16:37:35;20.47;;;7.73;;
16119;SDS011;12670;53.502;10.252;2024-01-30T16:40:38;16.20;;;7.70;;
16119;SDS011;12670;53.502;10.252;2024-01-30T16:43:42;15.80;;;7.60;;
16119;SDS011;12670;53.502;10.252;2024-01-30T16:46:45;14.30;;;7.83;;
16119;SDS011;12670;53.502;10.252;2024-01-30T16:49:49;19.73;;;8.33;;
16119;SDS011;12670;53.502;10.252;2024-01-30T16:52:52;20.27;;;8.33;;
16119;SDS011;12670;53.502;10.252;2024-01-30T16:55:55;17.10;;;8.50;;
16119;SDS011;12670;53.502;10.252;2024-01-30T16:58:59;16.20;;;8.40;;
16119;SDS011;12670;53.502;10.252;2024-01-30T17:02:02;22.57;;;9.13;;
16119;SDS011;12670;53.502;10.252;2024-01-30T17:05:05;22.27;;;8.57;;
16119;SDS011;12670;53.502;10.252;2024-01-30T17:08:23;17.87;;;7.73;;
16119;SDS011;12670;53.502;10.252;2024-01-30T17:11:26;15.70;;;8.37;;
16119;SDS011;12670;53.502;10.252;2024-01-30T17:14:30;16.97;;;9.13;;
16119;SDS011;12670;53.502;10.252;2024-01-30T17:17:36;14.50;;;8.07;;
16119;SDS011;12670;53.502;10.252;2024-01-30T17:20:39;16.97;;;8.07;;
16119;SDS011;12670;53.502;10.252;2024-01-30T17:23:42;18.00;;;8.47;;
16119;SDS011;12670;53.502;10.252;2024-01-30T17:26:44;17.30;;;8.63;;
16119;SDS011;12670;53.502;10.252;2024-01-30T17:29:49;15.17;;;7.83;;
16119;SDS011;12670;53.502;10.252;2024-01-30T17:32:51;16.23;;;8.20;;
16119;SDS011;12670;53.502;10.252;2024-01-30T17:35:54;14.23;;;7.57;;
16119;SDS011;12670;53.502;10.252;2024-01-30T17:38:57;18.13;;;8.00;;
16119;SDS011;12670;53.502;10.252;2024-01-30T17:42:04;17.60;;;7.50;;
16119;SDS011;12670;53.502;10.252;2024-01-30T17:45:09;19.03;;;7.30;;
16119;SDS011;12670;53.502;10.252;2024-01-30T17:48:12;13.57;;;7.90;;
16119;SDS011;12670;53.502;10.252;2024-01-30T17:51:16;18.53;;;8.00;;
16119;SDS011;12670;53.502;10.252;2024-01-30T17:54:18;18.70;;;8.30;;
16119;SDS011;12670;53.502;10.252;2024-01-30T17:57:21;18.53;;;7.60;;